sensor_id;sensor_type;location;lat;lon;timestamp;temperature;humidity
4324;DHT22;2175;51.018;6.994;2024-03-17T00:00:47;5.60;99.90
4324;DHT22;2175;51.018;6.994;2024-03-17T00:03:13;5.60;99.90
4324;DHT22;2175;51.018;6.994;2024-03-17T00:05:38;5.60;99.90
4324;DHT22;2175;51.018;6.994;2024-03-17T00:08:04;5.60;99.90
4324;DHT22;2175;51.018;6.994;2024-03-17T00:10:31;5.70;99.90
4324;DHT22;2175;51.018;6.994;2024-03-17T00:12:57;5.70;99.90
4324;DHT22;2175;51.018;6.994;2024-03-17T00:15:23;5.70;99.90
4324;DHT22;2175;51.018;6.994;2024-03-17T00:17:48;5.60;99.90
4324;DHT22;2175;51.018;6.994;2024-03-17T00:20:14;5.60;99.90
4324;DHT22;2175;51.018;6.994;2024-03-17T00:22:48;5.70;99.90
4324;DHT22;2175;51.018;6.994;2024-03-17T00:25:15;5.60;99.90
4324;DHT22;2175;51.018;6.994;2024-03-17T00:27:41;5.60;99.90
4324;DHT22;2175;51.018;6.994;2024-03-17T00:30:09;5.60;99.90
4324;DHT22;2175;51.018;6.994;2024-03-17T00:32:38;5.50;99.90
4324;DHT22;2175;51.018;6.994;2024-03-17T00:35:06;5.30;99.90
4324;DHT22;2175;51.018;6.994;2024-03-17T00:37:32;5.40;99.90
4324;DHT22;2175;51.018;6.994;2024-03-17T00:39:59;5.50;99.90
4324;DHT22;2175;51.018;6.994;2024-03-17T00:42:25;5.50;99.90
4324;DHT22;2175;51.018;6.994;2024-03-17T00:44:51;5.40;99.90
4324;DHT22;2175;51.018;6.994;2024-03-17T00:47:17;5.50;99.90
4324;DHT22;2175;51.018;6.994;2024-03-17T00:49:42;5.50;99.90
4324;DHT22;2175;51.018;6.994;2024-03-17T00:52:08;5.40;99.90
4324;DHT22;2175;51.018;6.994;2024-03-17T00:54:33;5.40;99.90
4324;DHT22;2175;51.018;6.994;2024-03-17T00:56:59;5.30;99.90
4324;DHT22;2175;51.018;6.994;2024-03-17T00:59:24;5.20;99.90
4324;DHT22;2175;51.018;6.994;2024-03-17T01:01:50;5.20;99.90
4324;DHT22;2175;51.018;6.994;2024-03-17T01:04:16;5.20;99.90
4324;DHT22;2175;51.018;6.994;2024-03-17T01:06:41;5.30;99.90
4324;DHT22;2175;51.018;6.994;2024-03-17T01:09:07;5.40;99.90
4324;DHT22;2175;51.018;6.994;2024-03-17T01:11:34;5.30;99.90
4324;DHT22;2175;51.018;6.994;2024-03-17T01:13:59;5.40;99.90
4324;DHT22;2175;51.018;6.994;2024-03-17T01:16:25;5.40;99.90
4324;DHT22;2175;51.018;6.994;2024-03-17T01:18:50;5.40;99.90
4324;DHT22;2175;51.018;6.994;2024-03-17T01:21:16;5.40;99.90
4324;DHT22;2175;51.018;6.994;2024-03-17T01:23:42;5.40;99.90
4324;DHT22;2175;51.018;6.994;2024-03-17T01:26:08;5.40;99.90
4324;DHT22;2175;51.018;6.994;2024-03-17T01:28:33;5.30;99.90
4324;DHT22;2175;51.018;6.994;2024-03-17T01:30:59;5.30;99.90
4324;DHT22;2175;51.018;6.994;2024-03-17T01:33:24;5.10;99.90
4324;DHT22;2175;51.018;6.994;2024-03-17T01:35:50;5.10;99.90
4324;DHT22;2175;51.018;6.994;2024-03-17T01:38:16;5.20;99.90
4324;DHT22;2175;51.018;6.994;2024-03-17T01:40:41;5.10;99.90
4324;DHT22;2175;51.018;6.994;2024-03-17T01:43:10;5.00;99.90
4324;DHT22;2175;51.018;6.994;2024-03-17T01:45:36;5.00;99.90
4324;DHT22;2175;51.018;6.994;2024-03-17T01:48:03;5.10;99.90
4324;DHT22;2175;51.018;6.994;2024-03-17T01:50:35;5.10;99.90
4324;DHT22;2175;51.018;6.994;2024-03-17T01:53:06;4.90;99.90
4324;DHT22;2175;51.018;6.994;2024-03-17T01:55:38;5.00;99.90
4324;DHT22;2175;51.018;6.994;2024-03-17T01:58:05;4.90;99.90
4324;DHT22;2175;51.018;6.994;2024-03-17T02:00:37;4.90;99.90
4324;DHT22;2175;51.018;6.994;2024-03-17T02:03:07;4.80;99.90
4324;DHT22;2175;51.018;6.994;2024-03-17T02:05:37;4.70;99.90
4324;DHT22;2175;51.018;6.994;2024-03-17T02:08:07;4.80;99.90
4324;DHT22;2175;51.018;6.994;2024-03-17T02:10:36;4.80;99.90
4324;DHT22;2175;51.018;6.994;2024-03-17T02:13:02;4.60;99.90
4324;DHT22;2175;51.018;6.994;2024-03-17T02:15:31;4.70;99.90
4324;DHT22;2175;51.018;6.994;2024-03-17T02:17:57;4.70;99.90
4324;DHT22;2175;51.018;6.994;2024-03-17T02:20:23;4.80;99.90
4324;DHT22;2175;51.018;6.994;2024-03-17T02:23:09;4.80;99.90
4324;DHT22;2175;51.018;6.994;2024-03-17T02:25:35;4.80;99.90
4324;DHT22;2175;51.018;6.994;2024-03-17T02:28:01;4.80;99.90
4324;DHT22;2175;51.018;6.994;2024-03-17T02:30:27;4.80;99.90
4324;DHT22;2175;51.018;6.994;2024-03-17T02:32:53;4.70;99.90
4324;DHT22;2175;51.018;6.994;2024-03-17T02:35:24;4.50;99.90
4324;DHT22;2175;51.018;6.994;2024-03-17T02:37:50;4.50;99.90
4324;DHT22;2175;51.018;6.994;2024-03-17T02:40:16;4.60;99.90
4324;DHT22;2175;51.018;6.994;2024-03-17T02:42:43;4.60;99.90
4324;DHT22;2175;51.018;6.994;2024-03-17T02:45:11;4.50;99.90
4324;DHT22;2175;51.018;6.994;2024-03-17T02:47:37;4.50;99.90
4324;DHT22;2175;51.018;6.994;2024-03-17T02:50:03;4.30;99.90
4324;DHT22;2175;51.018;6.994;2024-03-17T02:52:30;4.20;99.90
4324;DHT22;2175;51.018;6.994;2024-03-17T02:54:55;4.20;99.90
4324;DHT22;2175;51.018;6.994;2024-03-17T02:57:22;4.30;99.90
4324;DHT22;2175;51.018;6.994;2024-03-17T02:59:50;4.30;99.90
4324;DHT22;2175;51.018;6.994;2024-03-17T03:02:17;4.10;99.90
4324;DHT22;2175;51.018;6.994;2024-03-17T03:04:42;4.10;99.90
4324;DHT22;2175;51.018;6.994;2024-03-17T03:07:08;4.20;99.90
4324;DHT22;2175;51.018;6.994;2024-03-17T03:09:34;4.10;99.90
4324;DHT22;2175;51.018;6.994;2024-03-17T03:12:00;4.20;99.90
4324;DHT22;2175;51.018;6.994;2024-03-17T03:14:28;4.10;99.90
4324;DHT22;2175;51.018;6.994;2024-03-17T03:16:53;4.10;99.90
4324;DHT22;2175;51.018;6.994;2024-03-17T03:19:19;4.10;99.90
4324;DHT22;2175;51.018;6.994;2024-03-17T03:21:45;3.90;99.90
4324;DHT22;2175;51.018;6.994;2024-03-17T03:24:11;3.90;99.90
4324;DHT22;2175;51.018;6.994;2024-03-17T03:26:37;3.80;99.90
4324;DHT22;2175;51.018;6.994;2024-03-17T03:29:04;3.80;99.90
4324;DHT22;2175;51.018;6.994;2024-03-17T03:31:33;3.70;99.90
4324;DHT22;2175;51.018;6.994;2024-03-17T03:33:59;3.70;99.90
4324;DHT22;2175;51.018;6.994;2024-03-17T03:36:29;3.60;99.90
4324;DHT22;2175;51.018;6.994;2024-03-17T03:38:55;3.60;99.90
4324;DHT22;2175;51.018;6.994;2024-03-17T03:41:23;3.60;99.90
4324;DHT22;2175;51.018;6.994;2024-03-17T03:43:50;3.70;99.90
4324;DHT22;2175;51.018;6.994;2024-03-17T03:46:16;3.80;99.90
4324;DHT22;2175;51.018;6.994;2024-03-17T03:48:41;3.80;99.90
4324;DHT22;2175;51.018;6.994;2024-03-17T03:51:08;3.80;99.90
4324;DHT22;2175;51.018;6.994;2024-03-17T03:53:35;3.80;99.90
4324;DHT22;2175;51.018;6.994;2024-03-17T03:56:03;3.80;99.90
4324;DHT22;2175;51.018;6.994;2024-03-17T03:58:33;3.90;99.90
4324;DHT22;2175;51.018;6.994;2024-03-17T04:01:04;3.90;99.90
4324;DHT22;2175;51.018;6.994;2024-03-17T04:03:29;3.90;99.90
4324;DHT22;2175;51.018;6.994;2024-03-17T04:06:08;3.70;99.90
4324;DHT22;2175;51.018;6.994;2024-03-17T04:08:35;3.70;99.90
4324;DHT22;2175;51.018;6.994;2024-03-17T04:11:01;3.70;99.90
4324;DHT22;2175;51.018;6.994;2024-03-17T04:13:28;3.60;99.90
4324;DHT22;2175;51.018;6.994;2024-03-17T04:15:58;3.60;99.90
4324;DHT22;2175;51.018;6.994;2024-03-17T04:18:27;3.60;99.90
4324;DHT22;2175;51.018;6.994;2024-03-17T04:20:56;3.60;99.90
4324;DHT22;2175;51.018;6.994;2024-03-17T04:23:23;3.60;99.90
4324;DHT22;2175;51.018;6.994;2024-03-17T04:25:49;3.60;99.90
4324;DHT22;2175;51.018;6.994;2024-03-17T04:28:15;3.60;99.90
4324;DHT22;2175;51.018;6.994;2024-03-17T04:30:41;3.50;99.90
4324;DHT22;2175;51.018;6.994;2024-03-17T04:33:09;3.50;99.90
4324;DHT22;2175;51.018;6.994;2024-03-17T04:35:38;3.60;99.90
4324;DHT22;2175;51.018;6.994;2024-03-17T04:38:03;3.60;99.90
4324;DHT22;2175;51.018;6.994;2024-03-17T04:40:31;3.60;99.90
4324;DHT22;2175;51.018;6.994;2024-03-17T04:42:57;3.50;99.90
4324;DHT22;2175;51.018;6.994;2024-03-17T04:45:23;3.60;99.90
4324;DHT22;2175;51.018;6.994;2024-03-17T04:47:48;3.50;99.90
4324;DHT22;2175;51.018;6.994;2024-03-17T04:50:14;3.60;99.90
4324;DHT22;2175;51.018;6.994;2024-03-17T04:52:40;3.50;99.90
4324;DHT22;2175;51.018;6.994;2024-03-17T04:55:06;3.60;99.90
4324;DHT22;2175;51.018;6.994;2024-03-17T04:57:31;3.60;99.90
4324;DHT22;2175;51.018;6.994;2024-03-17T04:59:57;3.60;99.90
4324;DHT22;2175;51.018;6.994;2024-03-17T05:02:23;3.60;99.90
4324;DHT22;2175;51.018;6.994;2024-03-17T05:04:50;3.70;99.90
4324;DHT22;2175;51.018;6.994;2024-03-17T05:07:15;3.70;99.90
4324;DHT22;2175;51.018;6.994;2024-03-17T05:09:41;3.70;99.90
4324;DHT22;2175;51.018;6.994;2024-03-17T05:12:09;3.80;99.90
4324;DHT22;2175;51.018;6.994;2024-03-17T05:14:35;3.80;99.90
4324;DHT22;2175;51.018;6.994;2024-03-17T05:17:01;3.70;99.90
4324;DHT22;2175;51.018;6.994;2024-03-17T05:19:26;3.60;99.90
4324;DHT22;2175;51.018;6.994;2024-03-17T05:21:52;3.70;99.90
4324;DHT22;2175;51.018;6.994;2024-03-17T05:24:18;3.70;99.90
4324;DHT22;2175;51.018;6.994;2024-03-17T05:26:45;3.70;99.90
4324;DHT22;2175;51.018;6.994;2024-03-17T05:29:11;3.80;99.90
4324;DHT22;2175;51.018;6.994;2024-03-17T05:31:37;3.80;99.90
4324;DHT22;2175;51.018;6.994;2024-03-17T05:34:07;3.80;99.90
4324;DHT22;2175;51.018;6.994;2024-03-17T05:36:33;3.80;99.90
4324;DHT22;2175;51.018;6.994;2024-03-17T05:38:59;3.90;99.90
4324;DHT22;2175;51.018;6.994;2024-03-17T05:41:25;3.80;99.90
4324;DHT22;2175;51.018;6.994;2024-03-17T05:43:51;3.80;99.90
4324;DHT22;2175;51.018;6.994;2024-03-17T05:46:17;3.80;99.90
4324;DHT22;2175;51.018;6.994;2024-03-17T05:48:43;3.70;99.90
4324;DHT22;2175;51.018;6.994;2024-03-17T05:51:12;3.80;99.90
4324;DHT22;2175;51.018;6.994;2024-03-17T05:53:38;3.90;99.90
4324;DHT22;2175;51.018;6.994;2024-03-17T05:56:06;3.90;99.90
4324;DHT22;2175;51.018;6.994;2024-03-17T05:58:37;3.80;99.90
4324;DHT22;2175;51.018;6.994;2024-03-17T06:01:03;3.70;99.90
4324;DHT22;2175;51.018;6.994;2024-03-17T06:03:29;3.70;99.90
4324;DHT22;2175;51.018;6.994;2024-03-17T06:05:54;3.70;99.90
4324;DHT22;2175;51.018;6.994;2024-03-17T06:08:20;3.90;99.90
4324;DHT22;2175;51.018;6.994;2024-03-17T06:10:48;3.80;99.90
4324;DHT22;2175;51.018;6.994;2024-03-17T06:13:14;3.90;99.90
4324;DHT22;2175;51.018;6.994;2024-03-17T06:15:45;3.80;99.90
4324;DHT22;2175;51.018;6.994;2024-03-17T06:18:14;3.80;99.90
4324;DHT22;2175;51.018;6.994;2024-03-17T06:20:43;3.90;99.90
4324;DHT22;2175;51.018;6.994;2024-03-17T06:23:10;3.90;99.90
4324;DHT22;2175;51.018;6.994;2024-03-17T06:25:46;4.00;99.90
4324;DHT22;2175;51.018;6.994;2024-03-17T06:28:14;4.10;99.90
4324;DHT22;2175;51.018;6.994;2024-03-17T06:30:43;4.20;99.90
4324;DHT22;2175;51.018;6.994;2024-03-17T06:33:13;4.20;99.90
4324;DHT22;2175;51.018;6.994;2024-03-17T06:35:39;4.20;99.90
4324;DHT22;2175;51.018;6.994;2024-03-17T06:38:05;4.30;99.90
4324;DHT22;2175;51.018;6.994;2024-03-17T06:40:35;4.40;99.90
4324;DHT22;2175;51.018;6.994;2024-03-17T06:43:01;4.60;99.90
4324;DHT22;2175;51.018;6.994;2024-03-17T06:45:27;4.70;99.90
4324;DHT22;2175;51.018;6.994;2024-03-17T06:47:52;4.90;99.90
4324;DHT22;2175;51.018;6.994;2024-03-17T06:50:18;4.90;99.90
4324;DHT22;2175;51.018;6.994;2024-03-17T06:52:44;5.10;99.90
4324;DHT22;2175;51.018;6.994;2024-03-17T06:55:09;5.20;99.90
4324;DHT22;2175;51.018;6.994;2024-03-17T06:57:35;5.40;99.90
4324;DHT22;2175;51.018;6.994;2024-03-17T07:00:04;5.40;99.90
4324;DHT22;2175;51.018;6.994;2024-03-17T07:02:31;5.50;99.90
4324;DHT22;2175;51.018;6.994;2024-03-17T07:04:58;5.70;99.90
4324;DHT22;2175;51.018;6.994;2024-03-17T07:07:26;5.70;99.90
4324;DHT22;2175;51.018;6.994;2024-03-17T07:09:52;5.60;99.90
4324;DHT22;2175;51.018;6.994;2024-03-17T07:12:18;5.70;99.90
4324;DHT22;2175;51.018;6.994;2024-03-17T07:14:44;5.80;99.90
4324;DHT22;2175;51.018;6.994;2024-03-17T07:17:10;5.80;99.90
4324;DHT22;2175;51.018;6.994;2024-03-17T07:19:35;5.90;99.90
4324;DHT22;2175;51.018;6.994;2024-03-17T07:22:01;5.90;99.90
4324;DHT22;2175;51.018;6.994;2024-03-17T07:24:27;6.20;99.90
4324;DHT22;2175;51.018;6.994;2024-03-17T07:26:53;6.30;99.90
4324;DHT22;2175;51.018;6.994;2024-03-17T07:29:19;6.40;99.90
4324;DHT22;2175;51.018;6.994;2024-03-17T07:31:47;6.40;99.90
4324;DHT22;2175;51.018;6.994;2024-03-17T07:34:13;6.30;99.90
4324;DHT22;2175;51.018;6.994;2024-03-17T07:36:38;6.40;99.90
4324;DHT22;2175;51.018;6.994;2024-03-17T07:39:05;6.50;99.90
4324;DHT22;2175;51.018;6.994;2024-03-17T07:41:32;6.50;99.90
4324;DHT22;2175;51.018;6.994;2024-03-17T07:43:58;6.50;99.90
4324;DHT22;2175;51.018;6.994;2024-03-17T07:46:24;6.40;99.90
4324;DHT22;2175;51.018;6.994;2024-03-17T07:48:49;6.40;99.90
4324;DHT22;2175;51.018;6.994;2024-03-17T07:51:16;6.50;99.90
4324;DHT22;2175;51.018;6.994;2024-03-17T07:53:46;6.50;99.90
4324;DHT22;2175;51.018;6.994;2024-03-17T07:56:14;6.80;99.90
4324;DHT22;2175;51.018;6.994;2024-03-17T07:58:41;6.90;99.90
4324;DHT22;2175;51.018;6.994;2024-03-17T08:01:09;7.10;99.90
4324;DHT22;2175;51.018;6.994;2024-03-17T08:03:36;7.30;99.90
4324;DHT22;2175;51.018;6.994;2024-03-17T08:06:04;7.50;99.90
4324;DHT22;2175;51.018;6.994;2024-03-17T08:08:30;7.80;99.90
4324;DHT22;2175;51.018;6.994;2024-03-17T08:10:57;8.10;99.90
4324;DHT22;2175;51.018;6.994;2024-03-17T08:13:23;8.30;99.90
4324;DHT22;2175;51.018;6.994;2024-03-17T08:15:56;8.60;99.90
4324;DHT22;2175;51.018;6.994;2024-03-17T08:18:22;8.90;99.90
4324;DHT22;2175;51.018;6.994;2024-03-17T08:20:48;9.40;92.50
4324;DHT22;2175;51.018;6.994;2024-03-17T08:23:14;10.40;1.00
4324;DHT22;2175;51.018;6.994;2024-03-17T08:25:39;10.80;1.00
4324;DHT22;2175;51.018;6.994;2024-03-17T08:28:05;11.60;1.00
4324;DHT22;2175;51.018;6.994;2024-03-17T08:30:33;11.60;99.90
4324;DHT22;2175;51.018;6.994;2024-03-17T08:32:59;11.20;1.00
4324;DHT22;2175;51.018;6.994;2024-03-17T08:35:25;10.70;99.90
4324;DHT22;2175;51.018;6.994;2024-03-17T08:37:51;10.30;99.90
4324;DHT22;2175;51.018;6.994;2024-03-17T08:40:20;10.50;99.90
4324;DHT22;2175;51.018;6.994;2024-03-17T08:42:46;11.90;99.90
4324;DHT22;2175;51.018;6.994;2024-03-17T08:45:11;13.00;1.00
4324;DHT22;2175;51.018;6.994;2024-03-17T08:47:38;13.40;8.80
4324;DHT22;2175;51.018;6.994;2024-03-17T08:50:04;13.50;99.90
4324;DHT22;2175;51.018;6.994;2024-03-17T08:52:30;13.20;1.00
4324;DHT22;2175;51.018;6.994;2024-03-17T08:54:59;12.90;1.00
4324;DHT22;2175;51.018;6.994;2024-03-17T08:57:25;12.50;99.90
4324;DHT22;2175;51.018;6.994;2024-03-17T08:59:51;12.50;99.90
4324;DHT22;2175;51.018;6.994;2024-03-17T09:02:19;12.40;99.90
4324;DHT22;2175;51.018;6.994;2024-03-17T09:04:46;12.10;99.90
4324;DHT22;2175;51.018;6.994;2024-03-17T09:07:12;11.90;1.00
4324;DHT22;2175;51.018;6.994;2024-03-17T09:09:46;11.70;99.90
4324;DHT22;2175;51.018;6.994;2024-03-17T09:12:11;12.00;99.90
4324;DHT22;2175;51.018;6.994;2024-03-17T09:14:37;12.40;99.90
4324;DHT22;2175;51.018;6.994;2024-03-17T09:17:03;12.70;69.50
4324;DHT22;2175;51.018;6.994;2024-03-17T09:19:29;12.50;1.00
4324;DHT22;2175;51.018;6.994;2024-03-17T09:21:55;12.40;1.00
4324;DHT22;2175;51.018;6.994;2024-03-17T09:24:21;12.50;99.90
4324;DHT22;2175;51.018;6.994;2024-03-17T09:26:46;12.40;1.00
4324;DHT22;2175;51.018;6.994;2024-03-17T09:29:13;12.40;1.00
4324;DHT22;2175;51.018;6.994;2024-03-17T09:31:41;12.20;1.00
4324;DHT22;2175;51.018;6.994;2024-03-17T09:34:07;12.10;99.90
4324;DHT22;2175;51.018;6.994;2024-03-17T09:36:33;12.10;1.00
4324;DHT22;2175;51.018;6.994;2024-03-17T09:38:59;11.80;1.00
4324;DHT22;2175;51.018;6.994;2024-03-17T09:41:26;11.90;1.00
4324;DHT22;2175;51.018;6.994;2024-03-17T09:43:58;11.90;1.00
4324;DHT22;2175;51.018;6.994;2024-03-17T09:46:25;12.00;99.90
4324;DHT22;2175;51.018;6.994;2024-03-17T09:48:51;12.00;99.90
4324;DHT22;2175;51.018;6.994;2024-03-17T09:51:25;12.20;99.90
4324;DHT22;2175;51.018;6.994;2024-03-17T09:53:51;12.30;1.00
4324;DHT22;2175;51.018;6.994;2024-03-17T09:56:19;12.50;1.00
4324;DHT22;2175;51.018;6.994;2024-03-17T09:58:46;12.60;1.00
4324;DHT22;2175;51.018;6.994;2024-03-17T10:01:12;12.70;1.00
4324;DHT22;2175;51.018;6.994;2024-03-17T10:03:48;12.80;99.90
4324;DHT22;2175;51.018;6.994;2024-03-17T10:06:21;12.70;99.90
4324;DHT22;2175;51.018;6.994;2024-03-17T10:08:48;12.60;99.90
4324;DHT22;2175;51.018;6.994;2024-03-17T10:11:16;12.50;1.00
4324;DHT22;2175;51.018;6.994;2024-03-17T10:13:43;12.40;1.00
4324;DHT22;2175;51.018;6.994;2024-03-17T10:16:26;12.50;99.90
4324;DHT22;2175;51.018;6.994;2024-03-17T10:21:32;12.80;99.90
4324;DHT22;2175;51.018;6.994;2024-03-17T10:24:11;12.70;1.00
4324;DHT22;2175;51.018;6.994;2024-03-17T10:29:29;12.80;99.90
4324;DHT22;2175;51.018;6.994;2024-03-17T10:34:29;12.60;1.00
4324;DHT22;2175;51.018;6.994;2024-03-17T10:37:10;12.50;1.00
4324;DHT22;2175;51.018;6.994;2024-03-17T10:39:44;12.70;1.00
4324;DHT22;2175;51.018;6.994;2024-03-17T10:42:11;13.00;99.90
4324;DHT22;2175;51.018;6.994;2024-03-17T10:44:38;12.90;99.90
4324;DHT22;2175;51.018;6.994;2024-03-17T10:47:05;13.00;99.90
4324;DHT22;2175;51.018;6.994;2024-03-17T10:49:38;12.90;99.90
4324;DHT22;2175;51.018;6.994;2024-03-17T10:52:06;12.90;1.00
4324;DHT22;2175;51.018;6.994;2024-03-17T10:54:33;13.10;99.90
4324;DHT22;2175;51.018;6.994;2024-03-17T10:57:39;13.30;99.90
4324;DHT22;2175;51.018;6.994;2024-03-17T11:00:09;13.70;43.40
4324;DHT22;2175;51.018;6.994;2024-03-17T11:02:40;13.60;99.90
4324;DHT22;2175;51.018;6.994;2024-03-17T11:07:43;13.80;99.90
4324;DHT22;2175;51.018;6.994;2024-03-17T11:12:47;14.20;99.90
4324;DHT22;2175;51.018;6.994;2024-03-17T11:17:46;14.40;99.90
4324;DHT22;2175;51.018;6.994;2024-03-17T11:20:22;14.30;99.90
4324;DHT22;2175;51.018;6.994;2024-03-17T11:22:50;14.40;99.90
4324;DHT22;2175;51.018;6.994;2024-03-17T11:27:54;14.40;99.90
4324;DHT22;2175;51.018;6.994;2024-03-17T11:30:43;14.60;99.90
4324;DHT22;2175;51.018;6.994;2024-03-17T11:47:00;14.70;17.50
4324;DHT22;2175;51.018;6.994;2024-03-17T11:51:57;14.30;99.90
4324;DHT22;2175;51.018;6.994;2024-03-17T11:54:30;14.40;99.90
4324;DHT22;2175;51.018;6.994;2024-03-17T11:57:04;14.40;99.90
4324;DHT22;2175;51.018;6.994;2024-03-17T11:59:31;14.40;99.90
4324;DHT22;2175;51.018;6.994;2024-03-17T12:01:57;14.50;99.90
4324;DHT22;2175;51.018;6.994;2024-03-17T12:04:24;14.30;83.10
4324;DHT22;2175;51.018;6.994;2024-03-17T12:06:51;14.20;99.90
4324;DHT22;2175;51.018;6.994;2024-03-17T12:09:25;14.20;99.90
4324;DHT22;2175;51.018;6.994;2024-03-17T12:12:02;14.20;46.10
4324;DHT22;2175;51.018;6.994;2024-03-17T12:14:29;14.20;99.90
4324;DHT22;2175;51.018;6.994;2024-03-17T12:17:01;14.20;1.00
4324;DHT22;2175;51.018;6.994;2024-03-17T12:19:27;14.30;99.90
4324;DHT22;2175;51.018;6.994;2024-03-17T12:21:54;14.20;99.90
4324;DHT22;2175;51.018;6.994;2024-03-17T12:24:24;14.10;99.90
4324;DHT22;2175;51.018;6.994;2024-03-17T12:26:52;14.20;32.80
4324;DHT22;2175;51.018;6.994;2024-03-17T12:31:47;14.20;60.20
4324;DHT22;2175;51.018;6.994;2024-03-17T12:34:13;14.10;31.30
4324;DHT22;2175;51.018;6.994;2024-03-17T12:36:39;14.10;99.90
4324;DHT22;2175;51.018;6.994;2024-03-17T12:39:19;14.10;99.90
4324;DHT22;2175;51.018;6.994;2024-03-17T12:41:45;14.20;99.90
4324;DHT22;2175;51.018;6.994;2024-03-17T12:44:26;14.20;54.80
4324;DHT22;2175;51.018;6.994;2024-03-17T12:46:56;14.20;99.90
4324;DHT22;2175;51.018;6.994;2024-03-17T12:49:22;14.20;99.90
4324;DHT22;2175;51.018;6.994;2024-03-17T12:51:51;14.40;99.90
4324;DHT22;2175;51.018;6.994;2024-03-17T12:54:19;14.60;99.90
4324;DHT22;2175;51.018;6.994;2024-03-17T12:56:45;14.50;99.90
4324;DHT22;2175;51.018;6.994;2024-03-17T12:59:42;14.50;99.90
4324;DHT22;2175;51.018;6.994;2024-03-17T13:02:26;14.60;4.90
4324;DHT22;2175;51.018;6.994;2024-03-17T13:05:18;14.50;19.70
4324;DHT22;2175;51.018;6.994;2024-03-17T13:07:46;14.40;96.90
4324;DHT22;2175;51.018;6.994;2024-03-17T13:10:13;14.40;99.90
4324;DHT22;2175;51.018;6.994;2024-03-17T13:12:40;14.50;99.90
4324;DHT22;2175;51.018;6.994;2024-03-17T13:15:09;14.50;99.90
4324;DHT22;2175;51.018;6.994;2024-03-17T13:17:37;14.40;43.00
4324;DHT22;2175;51.018;6.994;2024-03-17T13:20:03;14.50;27.80
4324;DHT22;2175;51.018;6.994;2024-03-17T13:22:32;14.60;1.00
4324;DHT22;2175;51.018;6.994;2024-03-17T13:24:57;14.70;5.50
4324;DHT22;2175;51.018;6.994;2024-03-17T13:27:23;14.70;99.90
4324;DHT22;2175;51.018;6.994;2024-03-17T13:29:49;14.80;99.90
4324;DHT22;2175;51.018;6.994;2024-03-17T13:32:15;14.80;3.50
4324;DHT22;2175;51.018;6.994;2024-03-17T13:34:43;14.70;98.00
4324;DHT22;2175;51.018;6.994;2024-03-17T13:37:08;14.70;99.90
4324;DHT22;2175;51.018;6.994;2024-03-17T13:39:34;14.60;69.70
4324;DHT22;2175;51.018;6.994;2024-03-17T13:42:00;14.60;99.90
4324;DHT22;2175;51.018;6.994;2024-03-17T13:44:32;14.50;99.90
4324;DHT22;2175;51.018;6.994;2024-03-17T13:46:59;14.40;66.60
4324;DHT22;2175;51.018;6.994;2024-03-17T13:49:27;14.40;7.70
4324;DHT22;2175;51.018;6.994;2024-03-17T13:51:54;14.40;41.20
4324;DHT22;2175;51.018;6.994;2024-03-17T13:54:19;14.40;99.90
4324;DHT22;2175;51.018;6.994;2024-03-17T13:56:49;14.40;99.90
4324;DHT22;2175;51.018;6.994;2024-03-17T13:59:16;14.40;99.90
4324;DHT22;2175;51.018;6.994;2024-03-17T14:01:43;14.40;99.90
4324;DHT22;2175;51.018;6.994;2024-03-17T14:04:15;14.40;99.90
4324;DHT22;2175;51.018;6.994;2024-03-17T14:06:45;14.40;99.90
4324;DHT22;2175;51.018;6.994;2024-03-17T14:09:17;14.40;99.90
4324;DHT22;2175;51.018;6.994;2024-03-17T14:11:45;14.50;1.00
4324;DHT22;2175;51.018;6.994;2024-03-17T14:14:12;14.40;99.90
4324;DHT22;2175;51.018;6.994;2024-03-17T14:16:38;14.20;99.90
4324;DHT22;2175;51.018;6.994;2024-03-17T14:19:04;14.20;99.90
4324;DHT22;2175;51.018;6.994;2024-03-17T14:21:30;14.20;1.00
4324;DHT22;2175;51.018;6.994;2024-03-17T14:23:56;14.30;99.90
4324;DHT22;2175;51.018;6.994;2024-03-17T14:26:22;14.40;99.90
4324;DHT22;2175;51.018;6.994;2024-03-17T14:28:49;14.30;99.90
4324;DHT22;2175;51.018;6.994;2024-03-17T14:31:20;14.30;99.90
4324;DHT22;2175;51.018;6.994;2024-03-17T14:33:45;14.40;99.90
4324;DHT22;2175;51.018;6.994;2024-03-17T14:36:11;14.40;99.90
4324;DHT22;2175;51.018;6.994;2024-03-17T14:38:36;14.40;1.00
4324;DHT22;2175;51.018;6.994;2024-03-17T14:41:02;14.50;99.90
4324;DHT22;2175;51.018;6.994;2024-03-17T14:43:30;14.50;99.90
4324;DHT22;2175;51.018;6.994;2024-03-17T14:45:56;14.60;99.90
4324;DHT22;2175;51.018;6.994;2024-03-17T14:48:22;14.70;1.00
4324;DHT22;2175;51.018;6.994;2024-03-17T14:50:49;14.60;99.90
4324;DHT22;2175;51.018;6.994;2024-03-17T14:53:15;14.70;1.00
4324;DHT22;2175;51.018;6.994;2024-03-17T14:55:42;14.70;99.90
4324;DHT22;2175;51.018;6.994;2024-03-17T14:58:08;14.70;99.90
4324;DHT22;2175;51.018;6.994;2024-03-17T15:00:35;14.80;99.90
4324;DHT22;2175;51.018;6.994;2024-03-17T15:03:01;14.80;99.90
4324;DHT22;2175;51.018;6.994;2024-03-17T15:05:26;14.80;99.90
4324;DHT22;2175;51.018;6.994;2024-03-17T15:07:52;14.80;1.00
4324;DHT22;2175;51.018;6.994;2024-03-17T15:10:19;14.90;1.00
4324;DHT22;2175;51.018;6.994;2024-03-17T15:12:50;15.00;99.90
4324;DHT22;2175;51.018;6.994;2024-03-17T15:15:16;15.10;78.70
4324;DHT22;2175;51.018;6.994;2024-03-17T15:17:42;15.10;99.90
4324;DHT22;2175;51.018;6.994;2024-03-17T15:20:10;15.00;99.90
4324;DHT22;2175;51.018;6.994;2024-03-17T15:22:46;15.00;93.60
4324;DHT22;2175;51.018;6.994;2024-03-17T15:25:13;15.00;47.10
4324;DHT22;2175;51.018;6.994;2024-03-17T15:27:42;15.10;57.00
4324;DHT22;2175;51.018;6.994;2024-03-17T15:30:18;15.30;99.90
4324;DHT22;2175;51.018;6.994;2024-03-17T15:32:51;15.40;34.70
4324;DHT22;2175;51.018;6.994;2024-03-17T15:35:20;15.30;37.70
4324;DHT22;2175;51.018;6.994;2024-03-17T15:37:46;15.10;91.50
4324;DHT22;2175;51.018;6.994;2024-03-17T15:40:13;15.10;99.90
4324;DHT22;2175;51.018;6.994;2024-03-17T15:42:48;15.00;99.90
4324;DHT22;2175;51.018;6.994;2024-03-17T15:45:18;15.10;99.90
4324;DHT22;2175;51.018;6.994;2024-03-17T15:47:46;14.90;31.50
4324;DHT22;2175;51.018;6.994;2024-03-17T15:50:12;14.80;59.30
4324;DHT22;2175;51.018;6.994;2024-03-17T15:52:40;14.80;25.80
4324;DHT22;2175;51.018;6.994;2024-03-17T15:55:08;14.80;99.90
4324;DHT22;2175;51.018;6.994;2024-03-17T15:57:34;14.70;99.90
4324;DHT22;2175;51.018;6.994;2024-03-17T16:00:00;14.70;99.90
4324;DHT22;2175;51.018;6.994;2024-03-17T16:02:26;14.60;31.10
4324;DHT22;2175;51.018;6.994;2024-03-17T16:04:52;14.60;56.10
4324;DHT22;2175;51.018;6.994;2024-03-17T16:07:22;14.60;17.20
4324;DHT22;2175;51.018;6.994;2024-03-17T16:09:50;14.70;99.90
4324;DHT22;2175;51.018;6.994;2024-03-17T16:12:18;14.70;1.00
4324;DHT22;2175;51.018;6.994;2024-03-17T16:14:44;14.70;28.10
4324;DHT22;2175;51.018;6.994;2024-03-17T16:17:14;14.60;1.00
4324;DHT22;2175;51.018;6.994;2024-03-17T16:19:43;14.50;1.00
4324;DHT22;2175;51.018;6.994;2024-03-17T16:22:11;14.50;44.90
4324;DHT22;2175;51.018;6.994;2024-03-17T16:24:39;14.40;99.90
4324;DHT22;2175;51.018;6.994;2024-03-17T16:27:07;14.50;90.60
4324;DHT22;2175;51.018;6.994;2024-03-17T16:29:33;14.40;29.50
4324;DHT22;2175;51.018;6.994;2024-03-17T16:31:59;14.30;23.90
4324;DHT22;2175;51.018;6.994;2024-03-17T16:34:24;14.30;99.90
4324;DHT22;2175;51.018;6.994;2024-03-17T16:36:54;14.30;99.90
4324;DHT22;2175;51.018;6.994;2024-03-17T16:39:20;14.30;99.90
4324;DHT22;2175;51.018;6.994;2024-03-17T16:41:47;14.30;1.00
4324;DHT22;2175;51.018;6.994;2024-03-17T16:44:26;14.20;99.90
4324;DHT22;2175;51.018;6.994;2024-03-17T16:49:32;14.00;99.90
4324;DHT22;2175;51.018;6.994;2024-03-17T16:51:58;13.90;1.00
4324;DHT22;2175;51.018;6.994;2024-03-17T16:54:26;13.80;41.50